Time;durP1;ratioP1;P1;durP2;ratioP2;P2;SDS_P1;SDS_P2;PMS_P1;PMS_P2;Temp;Humidity;BMP_temperature;BMP_pressure;BME280_temperature;BME280_humidity;BME280_pressure;Samples;Min_cycle;Max_cycle;Signal;HPM_P1;HPM_P2
2021/08/10 05:53:29;;;;;;;4.65;2.85;;;;;;;;;;10589673;27;20401;-87
2021/08/10 06:04:48;;;;;;;5.63;3.33;;;;;;;;;;10621256;28;20028;-87
2021/08/10 06:09:49;;;;;;;4.50;2.70;;;;;;;;;;10604348;28;20118;-87
2021/08/10 06:14:50;;;;;;;;;;;;;;;;;;10619599;28;20019;-86
2021/08/10 06:19:51;;;;;;;5.47;3.55;;;;;;;;;;10645423;27;19960;-86
2021/08/10 06:24:52;;;;;;;;;;;;;;;;;;10648411;27;20028;-86
2021/08/10 06:29:53;;;;;;;5.55;3.28;;;;;;;;;;10631855;28;19947;-86
2021/08/10 06:34:54;;;;;;;;;;;;;;;;;;10626570;28;20034;-86
2021/08/10 06:39:54;;;;;;;5.28;3.30;;;;;;;;;;10631075;27;19964;-86
2021/08/10 06:44:55;;;;;;;;;;;;;;;;;;10636407;28;20031;-86
2021/08/10 06:49:56;;;;;;;6.60;4.18;;;;;;;;;;10617797;28;20338;-87
2021/08/10 06:54:57;;;;;;;6.28;3.63;;;;;;;;;;10614085;28;20481;-87
2021/08/10 06:59:58;;;;;;;7.57;4.50;;;;;;;;;;10615069;28;20127;-85
2021/08/10 07:05:00;;;;;;;5.10;2.58;;;;;;;;;;10584453;28;20508;-84
2021/08/10 07:10:01;;;;;;;4.70;3.17;;;;;;;;;;10595059;28;20121;-86
2021/08/10 07:15:02;;;;;;;5.10;3.38;;;;;;;;;;10594892;28;20035;-85
2021/08/10 07:20:03;;;;;;;5.55;3.47;;;;;;;;;;10599045;28;20031;-84
2021/08/10 07:25:04;;;;;;;4.65;3.00;;;;;;;;;;10590648;28;20027;-84
2021/08/10 07:30:05;;;;;;;4.90;3.33;;;;;;;;;;10619252;28;20019;-84
2021/08/10 07:35:08;;;;;;;6.30;4.03;;;;;;;;;;10622077;28;20031;-84
2021/08/10 07:40:10;;;;;;;6.97;3.90;;;;;;;;;;10592215;28;20028;-85
2021/08/10 07:45:11;;;;;;;5.03;3.30;;;;;;;;;;10584914;28;20011;-85
2021/08/10 07:50:12;;;;;;;4.68;3.15;;;;;;;;;;10586111;28;20034;-86
2021/08/10 07:55:13;;;;;;;4.78;3.05;;;;;;;;;;10584044;28;20023;-85
2021/08/10 08:00:14;;;;;;;4.15;2.95;;;;;;;;;;10586108;28;20461;-85
2021/08/10 08:05:24;;;;;;;6.55;3.10;;;;;;;;;;10584611;28;20435;-88
2021/08/10 08:10:28;;;;;;;6.83;3.10;;;;;;;;;;10602769;28;20024;-85
2021/08/10 08:15:29;;;;;;;5.00;3.50;;;;;;;;;;10581001;28;20590;-85
2021/08/10 08:20:30;;;;;;;7.07;4.25;;;;;;;;;;10578418;28;20024;-84
2021/08/10 08:25:32;;;;;;;4.50;3.35;;;;;;;;;;10578855;28;20023;-86
2021/08/10 08:30:34;;;;;;;5.00;3.65;;;;;;;;;;10578969;28;20031;-85
2021/08/10 08:35:36;;;;;;;6.05;4.00;;;;;;;;;;10599186;28;20102;-86
2021/08/10 08:40:39;;;;;;;6.70;4.03;;;;;;;;;;10597063;28;20587;-85
2021/08/10 08:45:41;;;;;;;7.85;4.22;;;;;;;;;;10584015;28;20044;-84
2021/08/10 08:50:43;;;;;;;7.90;4.25;;;;;;;;;;10576699;28;20467;-85
2021/08/10 08:55:45;;;;;;;7.60;4.63;;;;;;;;;;10594180;28;20051;-85
2021/08/10 09:00:51;;;;;;;7.35;5.15;;;;;;;;;;10577675;27;20027;-82
2021/08/10 09:05:57;;;;;;;6.18;4.82;;;;;;;;;;10586780;28;20028;-85
2021/08/10 09:10:59;;;;;;;8.45;5.93;;;;;;;;;;10601229;28;20046;-86
2021/08/10 09:16:02;;;;;;;8.68;4.80;;;;;;;;;;10582617;28;20056;-85
2021/08/10 09:21:06;;;;;;;8.18;4.25;;;;;;;;;;10581778;28;20027;-84
2021/08/10 09:26:08;;;;;;;5.05;3.75;;;;;;;;;;10578139;28;20024;-83
2021/08/10 09:31:28;;;;;;;6.60;4.30;;;;;;;;;;10583389;28;20578;-84
2021/08/10 09:36:29;;;;;;;7.75;4.43;;;;;;;;;;10597193;28;20023;-87
2021/08/10 09:41:37;;;;;;;6.80;4.78;;;;;;;;;;10579261;28;20019;-85
2021/08/10 09:46:38;;;;;;;4.65;4.00;;;;;;;;;;10584207;28;20023;-85
2021/08/10 09:51:42;;;;;;;6.68;4.15;;;;;;;;;;10581285;28;20042;-84
2021/08/10 10:01:55;;;;;;;7.35;4.30;;;;;;;;;;10598683;28;20027;-81
2021/08/10 10:07:09;;;;;;;6.18;4.50;;;;;;;;;;10576282;28;20064;-81
2021/08/10 10:12:19;;;;;;;6.72;4.90;;;;;;;;;;10578057;28;20554;-83
2021/08/10 10:17:24;;;;;;;8.45;5.85;;;;;;;;;;10589456;28;20051;-81
2021/08/10 10:22:45;;;;;;;7.82;5.53;;;;;;;;;;10569928;28;20028;-82
2021/08/10 10:27:47;;;;;;;7.25;5.65;;;;;;;;;;10567830;28;20031;-82
2021/08/10 10:32:58;;;;;;;5.55;4.32;;;;;;;;;;10612615;27;20011;-82
2021/08/10 10:37:59;;;;;;;7.13;5.20;;;;;;;;;;10587159;28;20035;-83
2021/08/10 10:43:00;;;;;;;7.13;4.75;;;;;;;;;;10582728;28;20020;-85
2021/08/10 10:48:02;;;;;;;8.00;5.40;;;;;;;;;;10581261;28;20114;-84
2021/08/10 10:53:07;;;;;;;6.72;5.38;;;;;;;;;;10579042;28;20032;-82
2021/08/10 10:58:26;;;;;;;7.13;4.50;;;;;;;;;;10581838;27;20031;-84
2021/08/10 11:03:27;;;;;;;6.28;4.63;;;;;;;;;;10580450;28;20131;-86
2021/08/10 11:08:49;;;;;;;6.60;4.22;;;;;;;;;;10579214;28;20035;-84
2021/08/10 11:13:50;;;;;;;6.15;4.63;;;;;;;;;;10583428;27;20020;-84
2021/08/10 11:18:51;;;;;;;5.78;4.60;;;;;;;;;;10577970;28;20032;-80
2021/08/10 11:23:52;;;;;;;5.68;4.43;;;;;;;;;;10578257;28;20019;-83
2021/08/10 11:28:53;;;;;;;5.22;4.07;;;;;;;;;;10573677;28;20030;-80
2021/08/10 11:33:54;;;;;;;5.07;4.20;;;;;;;;;;10592035;28;20042;-81
2021/08/10 11:38:55;;;;;;;9.98;7.30;;;;;;;;;;10572545;28;20118;-81
2021/08/10 11:43:57;;;;;;;6.05;4.65;;;;;;;;;;10576977;28;20024;-85
2021/08/10 11:49:04;;;;;;;10.15;5.07;;;;;;;;;;10578575;28;20039;-83
2021/08/10 11:54:10;;;;;;;6.22;4.50;;;;;;;;;;10578656;28;20024;-82
2021/08/10 11:59:37;;;;;;;6.55;3.95;;;;;;;;;;10576956;28;20457;-83
2021/08/10 12:04:39;;;;;;;5.35;3.92;;;;;;;;;;10576756;28;20027;-83
2021/08/10 12:09:46;;;;;;;6.43;3.95;;;;;;;;;;10578098;28;20023;-83
2021/08/10 12:14:53;;;;;;;5.05;3.90;;;;;;;;;;10578691;28;20114;-84
2021/08/10 12:20:12;;;;;;;6.60;4.07;;;;;;;;;;10578887;28;20024;-83
2021/08/10 12:25:23;;;;;;;5.07;3.80;;;;;;;;;;10577422;28;20051;-81
2021/08/10 12:30:24;;;;;;;6.88;4.13;;;;;;;;;;10589397;28;20020;-81
2021/08/10 12:35:29;;;;;;;5.35;3.75;;;;;;;;;;10607933;27;20016;-81
2021/08/10 12:45:55;;;;;;;5.40;4.30;;;;;;;;;;10606182;28;20023;-84
2021/08/10 12:51:07;;;;;;;5.68;3.60;;;;;;;;;;10577176;28;20042;-82
2021/08/10 12:56:08;;;;;;;5.88;3.80;;;;;;;;;;10569218;28;20036;-81
2021/08/10 13:01:09;;;;;;;6.18;3.40;;;;;;;;;;10576983;28;20024;-81
2021/08/10 13:06:26;;;;;;;4.95;2.95;;;;;;;;;;10577847;28;20453;-84
2021/08/10 13:11:27;;;;;;;4.50;2.83;;;;;;;;;;10598682;28;20028;-83
2021/08/10 13:17:04;;;;;;;5.72;3.45;;;;;;;;;;10580230;28;20024;-83
2021/08/10 13:22:51;;;;;;;4.13;3.30;;;;;;;;;;10533000;28;20031;-83
2021/08/10 13:27:53;;;;;;;6.65;3.22;;;;;;;;;;10539007;28;20031;-83
2021/08/10 13:33:23;;;;;;;5.70;3.50;;;;;;;;;;10580429;28;20085;-83
2021/08/10 13:38:25;;;;;;;5.68;3.30;;;;;;;;;;10602460;28;20036;-83
2021/08/10 13:43:26;;;;;;;5.03;3.03;;;;;;;;;;10580672;28;20027;-85
2021/08/10 13:48:28;;;;;;;4.57;3.38;;;;;;;;;;10580610;28;20466;-81
2021/08/10 13:53:55;;;;;;;4.82;3.47;;;;;;;;;;10573844;28;20106;-80
2021/08/10 13:59:08;;;;;;;4.93;3.53;;;;;;;;;;10581087;28;20115;-82
2021/08/10 14:04:09;;;;;;;4.35;3.20;;;;;;;;;;10574954;28;20020;-83
2021/08/10 14:09:18;;;;;;;5.10;3.22;;;;;;;;;;10574957;28;20028;-82
2021/08/10 14:14:39;;;;;;;5.95;3.35;;;;;;;;;;10593937;28;20042;-80
2021/08/10 14:19:40;;;;;;;7.70;3.03;;;;;;;;;;10582709;28;20111;-81
2021/08/10 14:24:41;;;;;;;5.38;3.45;;;;;;;;;;10582100;28;20030;-81
2021/08/10 14:29:43;;;;;;;5.40;3.80;;;;;;;;;;10580897;28;20033;-81
2021/08/10 14:34:44;;;;;;;5.53;3.80;;;;;;;;;;10578454;28;20020;-80
2021/08/10 14:39:45;;;;;;;5.07;3.67;;;;;;;;;;10577360;28;20515;-80
2021/08/10 14:44:46;;;;;;;6.50;3.70;;;;;;;;;;10582852;28;20114;-79
2021/08/10 14:49:47;;;;;;;5.35;3.15;;;;;;;;;;10596026;28;20562;-80
2021/08/10 14:54:48;;;;;;;6.38;3.40;;;;;;;;;;10577134;28;20027;-80
2021/08/10 14:59:49;;;;;;;5.47;3.30;;;;;;;;;;10575888;28;20023;-80
2021/08/10 15:04:50;;;;;;;4.10;3.13;;;;;;;;;;10577976;28;20028;-80
2021/08/10 15:09:51;;;;;;;6.07;3.28;;;;;;;;;;10575537;28;20073;-80
2021/08/10 15:14:52;;;;;;;4.00;2.90;;;;;;;;;;10575021;28;20536;-80
2021/08/10 15:19:53;;;;;;;4.65;3.05;;;;;;;;;;10573334;28;20063;-81
2021/08/10 15:24:54;;;;;;;6.30;4.00;;;;;;;;;;10591800;28;20027;-79
2021/08/10 15:29:55;;;;;;;6.10;3.65;;;;;;;;;;10585330;22;20039;-83
2021/08/10 15:34:56;;;;;;;8.55;4.00;;;;;;;;;;10578367;28;20380;-80
2021/08/10 15:39:57;;;;;;;8.35;3.40;;;;;;;;;;10578359;28;20032;-80
2021/08/10 15:45:01;;;;;;;6.50;3.75;;;;;;;;;;10576414;28;20020;-81
2021/08/10 15:50:05;;;;;;;4.85;3.70;;;;;;;;;;10576692;28;20023;-81
2021/08/10 15:55:07;;;;;;;4.10;3.50;;;;;;;;;;10577464;28;20038;-84
2021/08/10 16:00:11;;;;;;;4.40;3.50;;;;;;;;;;10592260;28;20047;-81
2021/08/10 16:05:12;;;;;;;4.65;3.08;;;;;;;;;;10577157;28;20473;-81
2021/08/10 16:10:19;;;;;;;5.35;2.90;;;;;;;;;;10580630;28;20055;-84
2021/08/10 16:15:21;;;;;;;4.05;3.25;;;;;;;;;;10579192;28;20027;-82
2021/08/10 16:20:32;;;;;;;4.60;3.67;;;;;;;;;;10577639;28;20016;-84
2021/08/10 16:25:33;;;;;;;4.65;3.20;;;;;;;;;;10579933;28;20047;-84
2021/08/10 16:30:42;;;;;;;4.50;3.30;;;;;;;;;;10575014;28;20461;-86
2021/08/10 16:35:44;;;;;;;4.97;2.70;;;;;;;;;;10587348;28;20031;-86
2021/08/10 16:41:10;;;;;;;3.35;2.10;;;;;;;;;;10535844;28;20482;-86
2021/08/10 16:46:55;;;;;;;3.10;2.40;;;;;;;;;;10546874;28;20028;-84
2021/08/10 16:52:20;;;;;;;3.70;2.20;;;;;;;;;;10495476;28;20578;-84
2021/08/10 16:57:21;;;;;;;3.95;2.40;;;;;;;;;;10529947;28;20538;-87
2021/08/10 17:02:22;;;;;;;44.85;39.97;;;;;;;;;;10524534;28;20023;-87
2021/08/10 17:07:23;;;;;;;5.45;3.30;;;;;;;;;;10571419;28;20085;-84
2021/08/10 17:12:24;;;;;;;4.82;3.33;;;;;;;;;;10576754;28;20030;-84
2021/08/10 17:17:25;;;;;;;4.70;3.35;;;;;;;;;;10573502;28;20536;-88
2021/08/10 17:22:28;;;;;;;3.42;3.05;;;;;;;;;;10587608;28;20054;-88
2021/08/10 17:27:58;;;;;;;3.40;2.60;;;;;;;;;;10590923;28;20034;-87
2021/08/10 17:33:11;;;;;;;3.63;2.80;;;;;;;;;;10628120;27;20035;-85
2021/08/10 17:43:53;;;;;;;3.45;2.70;;;;;;;;;;10619159;28;20028;-83
2021/08/10 17:54:44;;;;;;;4.50;2.40;;;;;;;;;;10600802;28;20036;-87
2021/08/10 18:00:09;;;;;;;3.60;2.65;;;;;;;;;;10572517;28;20023;-88
2021/08/10 18:05:30;;;;;;;4.07;2.40;;;;;;;;;;10578559;28;20032;-84
2021/08/10 18:10:34;;;;;;;3.90;2.55;;;;;;;;;;10575787;28;20194;-84
2021/08/10 18:15:37;;;;;;;3.28;2.65;;;;;;;;;;10573140;28;20036;-83
2021/08/10 18:20:45;;;;;;;3.75;2.42;;;;;;;;;;10578977;28;20039;-84
2021/08/10 18:26:09;;;;;;;3.10;2.33;;;;;;;;;;10596547;28;20024;-87
2021/08/10 18:31:25;;;;;;;3.45;2.72;;;;;;;;;;10588656;28;20032;-88
2021/08/10 18:42:15;;;;;;;3.70;2.38;;;;;;;;;;10593113;28;20027;-86
2021/08/10 18:47:48;;;;;;;4.10;2.83;;;;;;;;;;10555791;28;20023;-85
2021/08/10 18:52:57;;;;;;;3.25;2.60;;;;;;;;;;10576429;28;20038;-86
2021/08/10 18:57:59;;;;;;;3.60;2.67;;;;;;;;;;10578432;28;20041;-87
2021/08/10 19:08:52;;;;;;;4.43;2.70;;;;;;;;;;10597874;28;20491;-88
2021/08/10 19:14:21;;;;;;;4.85;2.60;;;;;;;;;;10590670;28;20507;-84
2021/08/10 19:19:23;;;;;;;2.97;2.45;;;;;;;;;;10590352;28;20024;-84
2021/08/10 19:30:36;;;;;;;3.40;2.80;;;;;;;;;;10598215;28;20031;-85
2021/08/10 19:36:01;;;;;;;3.38;2.42;;;;;;;;;;10573336;28;20040;-87
2021/08/10 19:41:22;;;;;;;3.97;2.50;;;;;;;;;;10587032;28;20024;-84
2021/08/10 19:46:23;;;;;;;4.95;2.88;;;;;;;;;;10586807;28;20058;-84
2021/08/10 19:51:27;;;;;;;2.95;2.50;;;;;;;;;;10577750;28;20381;-84
2021/08/10 19:56:43;;;;;;;3.75;2.85;;;;;;;;;;10585641;28;20057;-84
2021/08/10 20:01:44;;;;;;;4.35;3.05;;;;;;;;;;10604108;28;20370;-86
2021/08/10 20:12:24;;;;;;;3.05;2.38;;;;;;;;;;10625200;28;20020;-86
